sensor_id;sensor_type;location;lat;lon;timestamp;temperature;humidity
14850;DHT22;7517;48.400;11.770;2023-09-08T00:01:31;21.40;64.70
14850;DHT22;7517;48.400;11.770;2023-09-08T00:03:58;21.40;64.80
14850;DHT22;7517;48.400;11.770;2023-09-08T00:06:25;21.30;64.80
14850;DHT22;7517;48.400;11.770;2023-09-08T00:08:53;21.30;64.90
14850;DHT22;7517;48.400;11.770;2023-09-08T00:11:20;21.30;64.70
14850;DHT22;7517;48.400;11.770;2023-09-08T00:13:47;21.30;65.00
14850;DHT22;7517;48.400;11.770;2023-09-08T00:16:17;21.20;65.00
14850;DHT22;7517;48.400;11.770;2023-09-08T00:18:44;21.20;65.00
14850;DHT22;7517;48.400;11.770;2023-09-08T00:21:12;21.20;65.00
14850;DHT22;7517;48.400;11.770;2023-09-08T00:23:39;21.20;65.10
14850;DHT22;7517;48.400;11.770;2023-09-08T00:26:06;21.20;65.10
14850;DHT22;7517;48.400;11.770;2023-09-08T00:28:33;21.10;65.00
14850;DHT22;7517;48.400;11.770;2023-09-08T00:31:00;21.10;65.10
14850;DHT22;7517;48.400;11.770;2023-09-08T00:33:32;21.10;65.20
14850;DHT22;7517;48.400;11.770;2023-09-08T00:36:00;21.10;65.20
14850;DHT22;7517;48.400;11.770;2023-09-08T00:38:30;21.00;65.20
14850;DHT22;7517;48.400;11.770;2023-09-08T00:40:57;21.00;65.30
14850;DHT22;7517;48.400;11.770;2023-09-08T00:43:26;21.00;65.30
14850;DHT22;7517;48.400;11.770;2023-09-08T00:45:54;20.90;65.50
14850;DHT22;7517;48.400;11.770;2023-09-08T00:48:24;20.90;65.60
14850;DHT22;7517;48.400;11.770;2023-09-08T00:50:54;20.90;65.80
14850;DHT22;7517;48.400;11.770;2023-09-08T00:53:21;20.90;66.10
14850;DHT22;7517;48.400;11.770;2023-09-08T00:55:49;20.80;65.80
14850;DHT22;7517;48.400;11.770;2023-09-08T00:58:19;20.80;65.80
14850;DHT22;7517;48.400;11.770;2023-09-08T01:00:46;20.80;65.80
14850;DHT22;7517;48.400;11.770;2023-09-08T01:03:13;20.80;65.90
14850;DHT22;7517;48.400;11.770;2023-09-08T01:05:40;20.80;65.90
14850;DHT22;7517;48.400;11.770;2023-09-08T01:08:10;20.80;66.00
14850;DHT22;7517;48.400;11.770;2023-09-08T01:10:37;20.80;66.10
14850;DHT22;7517;48.400;11.770;2023-09-08T01:13:04;20.80;66.00
14850;DHT22;7517;48.400;11.770;2023-09-08T01:15:31;20.70;66.00
14850;DHT22;7517;48.400;11.770;2023-09-08T01:17:59;20.70;66.70
14850;DHT22;7517;48.400;11.770;2023-09-08T01:20:31;20.70;66.10
14850;DHT22;7517;48.400;11.770;2023-09-08T01:23:18;20.70;66.30
14850;DHT22;7517;48.400;11.770;2023-09-08T01:25:54;20.70;67.10
14850;DHT22;7517;48.400;11.770;2023-09-08T01:28:24;20.70;66.30
14850;DHT22;7517;48.400;11.770;2023-09-08T01:30:52;20.70;66.40
14850;DHT22;7517;48.400;11.770;2023-09-08T01:33:22;20.60;66.40
14850;DHT22;7517;48.400;11.770;2023-09-08T01:35:50;20.60;67.20
14850;DHT22;7517;48.400;11.770;2023-09-08T01:38:18;20.60;66.50
14850;DHT22;7517;48.400;11.770;2023-09-08T01:40:47;20.60;66.60
14850;DHT22;7517;48.400;11.770;2023-09-08T01:43:16;20.60;66.70
14850;DHT22;7517;48.400;11.770;2023-09-08T01:45:43;20.60;66.90
14850;DHT22;7517;48.400;11.770;2023-09-08T01:48:10;20.60;67.10
14850;DHT22;7517;48.400;11.770;2023-09-08T01:50:37;20.60;67.10
14850;DHT22;7517;48.400;11.770;2023-09-08T01:53:04;20.50;67.10
14850;DHT22;7517;48.400;11.770;2023-09-08T01:55:31;20.50;67.20
14850;DHT22;7517;48.400;11.770;2023-09-08T01:57:58;20.50;67.10
14850;DHT22;7517;48.400;11.770;2023-09-08T02:00:27;20.50;67.10
14850;DHT22;7517;48.400;11.770;2023-09-08T02:02:55;20.50;67.20
14850;DHT22;7517;48.400;11.770;2023-09-08T02:05:22;20.50;67.20
14850;DHT22;7517;48.400;11.770;2023-09-08T02:07:51;20.50;68.00
14850;DHT22;7517;48.400;11.770;2023-09-08T02:10:18;20.50;67.20
14850;DHT22;7517;48.400;11.770;2023-09-08T02:12:46;20.50;67.20
14850;DHT22;7517;48.400;11.770;2023-09-08T02:15:13;20.40;67.10
14850;DHT22;7517;48.400;11.770;2023-09-08T02:17:42;20.40;67.00
14850;DHT22;7517;48.400;11.770;2023-09-08T02:20:10;20.40;66.90
14850;DHT22;7517;48.400;11.770;2023-09-08T02:22:38;20.30;66.90
14850;DHT22;7517;48.400;11.770;2023-09-08T02:25:06;20.30;66.90
14850;DHT22;7517;48.400;11.770;2023-09-08T02:27:33;20.30;66.90
14850;DHT22;7517;48.400;11.770;2023-09-08T02:30:01;20.20;66.80
14850;DHT22;7517;48.400;11.770;2023-09-08T02:32:29;20.20;66.90
14850;DHT22;7517;48.400;11.770;2023-09-08T02:34:57;20.10;67.00
14850;DHT22;7517;48.400;11.770;2023-09-08T02:37:25;20.10;67.00
14850;DHT22;7517;48.400;11.770;2023-09-08T02:39:52;20.00;67.10
14850;DHT22;7517;48.400;11.770;2023-09-08T02:42:19;20.00;67.20
14850;DHT22;7517;48.400;11.770;2023-09-08T02:44:47;20.00;67.30
14850;DHT22;7517;48.400;11.770;2023-09-08T02:47:14;20.00;67.40
14850;DHT22;7517;48.400;11.770;2023-09-08T02:49:41;19.90;67.40
14850;DHT22;7517;48.400;11.770;2023-09-08T02:52:10;19.90;67.60
14850;DHT22;7517;48.400;11.770;2023-09-08T02:54:37;19.80;67.60
14850;DHT22;7517;48.400;11.770;2023-09-08T02:57:05;19.80;67.60
14850;DHT22;7517;48.400;11.770;2023-09-08T02:59:32;19.80;68.50
14850;DHT22;7517;48.400;11.770;2023-09-08T03:02:00;19.80;68.00
14850;DHT22;7517;48.400;11.770;2023-09-08T03:04:27;19.70;68.10
14850;DHT22;7517;48.400;11.770;2023-09-08T03:06:54;19.70;68.10
14850;DHT22;7517;48.400;11.770;2023-09-08T03:09:23;19.70;68.10
14850;DHT22;7517;48.400;11.770;2023-09-08T03:11:52;19.70;68.20
14850;DHT22;7517;48.400;11.770;2023-09-08T03:14:19;19.60;68.10
14850;DHT22;7517;48.400;11.770;2023-09-08T03:16:47;19.60;68.10
14850;DHT22;7517;48.400;11.770;2023-09-08T03:19:14;19.60;68.10
14850;DHT22;7517;48.400;11.770;2023-09-08T03:21:41;19.60;68.10
14850;DHT22;7517;48.400;11.770;2023-09-08T03:24:08;19.50;68.80
14850;DHT22;7517;48.400;11.770;2023-09-08T03:26:37;19.50;68.10
14850;DHT22;7517;48.400;11.770;2023-09-08T03:29:05;19.50;68.10
14850;DHT22;7517;48.400;11.770;2023-09-08T03:31:33;19.50;68.20
14850;DHT22;7517;48.400;11.770;2023-09-08T03:34:00;19.40;68.10
14850;DHT22;7517;48.400;11.770;2023-09-08T03:36:27;19.40;68.20
14850;DHT22;7517;48.400;11.770;2023-09-08T03:38:56;19.30;68.20
14850;DHT22;7517;48.400;11.770;2023-09-08T03:41:23;19.30;68.30
14850;DHT22;7517;48.400;11.770;2023-09-08T03:43:52;19.30;68.40
14850;DHT22;7517;48.400;11.770;2023-09-08T03:46:20;19.30;68.50
14850;DHT22;7517;48.400;11.770;2023-09-08T03:48:47;19.20;68.50
14850;DHT22;7517;48.400;11.770;2023-09-08T03:51:14;19.20;68.60
14850;DHT22;7517;48.400;11.770;2023-09-08T03:53:41;19.20;68.90
14850;DHT22;7517;48.400;11.770;2023-09-08T03:56:08;19.20;69.00
14850;DHT22;7517;48.400;11.770;2023-09-08T03:58:36;19.10;69.00
14850;DHT22;7517;48.400;11.770;2023-09-08T04:01:04;19.10;69.10
14850;DHT22;7517;48.400;11.770;2023-09-08T04:03:31;19.10;69.30
14850;DHT22;7517;48.400;11.770;2023-09-08T04:05:58;19.10;69.20
14850;DHT22;7517;48.400;11.770;2023-09-08T04:08:26;19.00;69.20
14850;DHT22;7517;48.400;11.770;2023-09-08T04:10:53;19.00;69.10
14850;DHT22;7517;48.400;11.770;2023-09-08T04:13:20;19.00;69.10
14850;DHT22;7517;48.400;11.770;2023-09-08T04:15:47;19.00;69.10
14850;DHT22;7517;48.400;11.770;2023-09-08T04:18:16;19.00;69.20
14850;DHT22;7517;48.400;11.770;2023-09-08T04:20:43;19.00;69.20
14850;DHT22;7517;48.400;11.770;2023-09-08T04:23:10;18.90;69.10
14850;DHT22;7517;48.400;11.770;2023-09-08T04:25:37;18.90;69.10
14850;DHT22;7517;48.400;11.770;2023-09-08T04:28:05;18.90;69.10
14850;DHT22;7517;48.400;11.770;2023-09-08T04:30:32;18.90;69.10
14850;DHT22;7517;48.400;11.770;2023-09-08T04:32:59;18.80;69.20
14850;DHT22;7517;48.400;11.770;2023-09-08T04:35:28;18.80;69.20
14850;DHT22;7517;48.400;11.770;2023-09-08T04:37:55;18.80;69.30
14850;DHT22;7517;48.400;11.770;2023-09-08T04:40:22;18.70;69.20
14850;DHT22;7517;48.400;11.770;2023-09-08T04:42:49;18.70;69.20
14850;DHT22;7517;48.400;11.770;2023-09-08T04:45:17;18.70;69.20
14850;DHT22;7517;48.400;11.770;2023-09-08T04:47:44;18.70;69.30
14850;DHT22;7517;48.400;11.770;2023-09-08T04:50:13;18.60;69.40
14850;DHT22;7517;48.400;11.770;2023-09-08T04:52:42;18.60;69.40
14850;DHT22;7517;48.400;11.770;2023-09-08T04:55:09;18.60;70.30
14850;DHT22;7517;48.400;11.770;2023-09-08T04:57:38;18.60;69.60
14850;DHT22;7517;48.400;11.770;2023-09-08T05:00:06;18.60;69.60
14850;DHT22;7517;48.400;11.770;2023-09-08T05:02:34;18.60;69.60
14850;DHT22;7517;48.400;11.770;2023-09-08T05:05:01;18.60;69.60
14850;DHT22;7517;48.400;11.770;2023-09-08T05:07:29;18.60;69.60
14850;DHT22;7517;48.400;11.770;2023-09-08T05:09:58;18.60;69.70
14850;DHT22;7517;48.400;11.770;2023-09-08T05:12:26;18.60;69.80
14850;DHT22;7517;48.400;11.770;2023-09-08T05:14:53;18.60;69.70
14850;DHT22;7517;48.400;11.770;2023-09-08T05:17:26;18.60;69.80
14850;DHT22;7517;48.400;11.770;2023-09-08T05:19:53;18.60;69.80
14850;DHT22;7517;48.400;11.770;2023-09-08T05:22:20;18.60;69.80
14850;DHT22;7517;48.400;11.770;2023-09-08T05:24:47;18.60;69.90
14850;DHT22;7517;48.400;11.770;2023-09-08T05:27:16;18.60;69.90
14850;DHT22;7517;48.400;11.770;2023-09-08T05:29:45;18.70;70.00
14850;DHT22;7517;48.400;11.770;2023-09-08T05:32:12;18.60;69.90
14850;DHT22;7517;48.400;11.770;2023-09-08T05:34:40;18.60;70.00
14850;DHT22;7517;48.400;11.770;2023-09-08T05:37:07;18.60;70.20
14850;DHT22;7517;48.400;11.770;2023-09-08T05:39:34;18.60;70.10
14850;DHT22;7517;48.400;11.770;2023-09-08T05:42:01;18.60;70.20
14850;DHT22;7517;48.400;11.770;2023-09-08T05:44:30;18.60;70.30
14850;DHT22;7517;48.400;11.770;2023-09-08T05:46:57;18.60;70.50
14850;DHT22;7517;48.400;11.770;2023-09-08T05:49:24;18.60;70.50
14850;DHT22;7517;48.400;11.770;2023-09-08T05:51:52;18.60;70.60
14850;DHT22;7517;48.400;11.770;2023-09-08T05:54:19;18.70;70.80
14850;DHT22;7517;48.400;11.770;2023-09-08T05:56:46;18.70;71.00
14850;DHT22;7517;48.400;11.770;2023-09-08T05:59:14;18.70;71.20
14850;DHT22;7517;48.400;11.770;2023-09-08T06:01:43;18.70;71.40
14850;DHT22;7517;48.400;11.770;2023-09-08T06:04:10;18.70;71.50
14850;DHT22;7517;48.400;11.770;2023-09-08T06:06:38;18.70;71.60
14850;DHT22;7517;48.400;11.770;2023-09-08T06:09:05;18.70;71.80
14850;DHT22;7517;48.400;11.770;2023-09-08T06:11:34;18.80;72.00
14850;DHT22;7517;48.400;11.770;2023-09-08T06:14:01;18.80;72.10
14850;DHT22;7517;48.400;11.770;2023-09-08T06:16:28;18.80;72.30
14850;DHT22;7517;48.400;11.770;2023-09-08T06:18:57;18.90;72.40
14850;DHT22;7517;48.400;11.770;2023-09-08T06:21:25;18.90;72.60
14850;DHT22;7517;48.400;11.770;2023-09-08T06:23:52;18.90;73.30
14850;DHT22;7517;48.400;11.770;2023-09-08T06:26:19;18.90;72.70
14850;DHT22;7517;48.400;11.770;2023-09-08T06:28:46;19.00;72.80
14850;DHT22;7517;48.400;11.770;2023-09-08T06:31:14;19.00;72.90
14850;DHT22;7517;48.400;11.770;2023-09-08T06:33:41;19.10;72.90
14850;DHT22;7517;48.400;11.770;2023-09-08T06:36:09;19.10;73.00
14850;DHT22;7517;48.400;11.770;2023-09-08T06:38:37;19.10;73.10
14850;DHT22;7517;48.400;11.770;2023-09-08T06:41:08;19.20;73.20
14850;DHT22;7517;48.400;11.770;2023-09-08T06:43:37;19.30;73.40
14850;DHT22;7517;48.400;11.770;2023-09-08T06:46:04;19.30;73.30
14850;DHT22;7517;48.400;11.770;2023-09-08T06:48:31;19.40;73.30
14850;DHT22;7517;48.400;11.770;2023-09-08T06:50:59;19.40;73.30
14850;DHT22;7517;48.400;11.770;2023-09-08T06:53:27;19.50;73.40
14850;DHT22;7517;48.400;11.770;2023-09-08T06:55:56;19.50;73.50
14850;DHT22;7517;48.400;11.770;2023-09-08T06:58:23;19.60;73.70
14850;DHT22;7517;48.400;11.770;2023-09-08T07:00:50;19.70;74.50
14850;DHT22;7517;48.400;11.770;2023-09-08T07:03:19;19.70;73.80
14850;DHT22;7517;48.400;11.770;2023-09-08T07:05:48;19.80;73.90
14850;DHT22;7517;48.400;11.770;2023-09-08T07:08:16;19.80;73.80
14850;DHT22;7517;48.400;11.770;2023-09-08T07:10:51;19.90;73.80
14850;DHT22;7517;48.400;11.770;2023-09-08T07:13:19;20.00;73.90
14850;DHT22;7517;48.400;11.770;2023-09-08T07:15:46;20.10;73.70
14850;DHT22;7517;48.400;11.770;2023-09-08T07:18:13;20.20;73.60
14850;DHT22;7517;48.400;11.770;2023-09-08T07:20:41;20.20;73.50
14850;DHT22;7517;48.400;11.770;2023-09-08T07:23:08;20.30;73.70
14850;DHT22;7517;48.400;11.770;2023-09-08T07:25:35;20.40;74.00
14850;DHT22;7517;48.400;11.770;2023-09-08T07:28:04;20.50;74.20
14850;DHT22;7517;48.400;11.770;2023-09-08T07:30:32;20.60;74.20
14850;DHT22;7517;48.400;11.770;2023-09-08T07:32:59;20.70;74.10
14850;DHT22;7517;48.400;11.770;2023-09-08T07:35:27;20.80;74.00
14850;DHT22;7517;48.400;11.770;2023-09-08T07:37:54;20.90;74.50
14850;DHT22;7517;48.400;11.770;2023-09-08T07:40:21;21.00;73.70
14850;DHT22;7517;48.400;11.770;2023-09-08T07:42:48;21.10;73.30
14850;DHT22;7517;48.400;11.770;2023-09-08T07:45:17;21.30;73.10
14850;DHT22;7517;48.400;11.770;2023-09-08T07:47:44;21.40;73.60
14850;DHT22;7517;48.400;11.770;2023-09-08T07:50:20;21.50;72.80
14850;DHT22;7517;48.400;11.770;2023-09-08T07:52:48;21.60;72.80
14850;DHT22;7517;48.400;11.770;2023-09-08T07:55:17;21.70;72.60
14850;DHT22;7517;48.400;11.770;2023-09-08T07:57:45;21.80;72.40
14850;DHT22;7517;48.400;11.770;2023-09-08T08:00:13;21.90;72.20
14850;DHT22;7517;48.400;11.770;2023-09-08T08:02:45;22.00;71.90
14850;DHT22;7517;48.400;11.770;2023-09-08T08:05:14;22.20;71.70
14850;DHT22;7517;48.400;11.770;2023-09-08T08:07:42;22.30;71.70
14850;DHT22;7517;48.400;11.770;2023-09-08T08:10:11;22.40;71.50
14850;DHT22;7517;48.400;11.770;2023-09-08T08:12:39;22.50;71.30
14850;DHT22;7517;48.400;11.770;2023-09-08T08:15:11;22.60;71.20
14850;DHT22;7517;48.400;11.770;2023-09-08T08:17:39;22.80;70.60
14850;DHT22;7517;48.400;11.770;2023-09-08T08:20:10;22.90;70.50
14850;DHT22;7517;48.400;11.770;2023-09-08T08:22:43;23.00;70.30
14850;DHT22;7517;48.400;11.770;2023-09-08T08:25:11;23.20;70.40
14850;DHT22;7517;48.400;11.770;2023-09-08T08:27:39;23.30;70.20
14850;DHT22;7517;48.400;11.770;2023-09-08T08:30:08;23.40;70.10
14850;DHT22;7517;48.400;11.770;2023-09-08T08:32:36;23.50;69.70
14850;DHT22;7517;48.400;11.770;2023-09-08T08:35:04;23.60;69.40
14850;DHT22;7517;48.400;11.770;2023-09-08T08:37:34;23.70;69.20
14850;DHT22;7517;48.400;11.770;2023-09-08T08:40:01;23.80;70.10
14850;DHT22;7517;48.400;11.770;2023-09-08T08:42:31;23.90;69.10
14850;DHT22;7517;48.400;11.770;2023-09-08T08:44:58;24.00;68.80
14850;DHT22;7517;48.400;11.770;2023-09-08T08:47:28;24.10;69.00
14850;DHT22;7517;48.400;11.770;2023-09-08T08:49:56;24.20;68.90
14850;DHT22;7517;48.400;11.770;2023-09-08T08:52:25;24.30;68.90
14850;DHT22;7517;48.400;11.770;2023-09-08T08:54:54;24.40;69.00
14850;DHT22;7517;48.400;11.770;2023-09-08T08:57:22;24.60;69.00
14850;DHT22;7517;48.400;11.770;2023-09-08T08:59:53;24.60;68.60
14850;DHT22;7517;48.400;11.770;2023-09-08T09:02:21;24.70;68.30
14850;DHT22;7517;48.400;11.770;2023-09-08T09:04:51;24.90;68.50
14850;DHT22;7517;48.400;11.770;2023-09-08T09:07:20;25.00;68.30
14850;DHT22;7517;48.400;11.770;2023-09-08T09:09:48;25.10;68.10
14850;DHT22;7517;48.400;11.770;2023-09-08T09:12:16;25.20;67.80
14850;DHT22;7517;48.400;11.770;2023-09-08T09:14:46;25.30;67.60
14850;DHT22;7517;48.400;11.770;2023-09-08T09:17:14;25.50;66.90
14850;DHT22;7517;48.400;11.770;2023-09-08T09:19:42;25.60;67.20
14850;DHT22;7517;48.400;11.770;2023-09-08T09:22:09;25.70;67.10
14850;DHT22;7517;48.400;11.770;2023-09-08T09:24:38;25.80;67.00
14850;DHT22;7517;48.400;11.770;2023-09-08T09:27:07;25.90;67.00
14850;DHT22;7517;48.400;11.770;2023-09-08T09:29:44;26.00;66.70
14850;DHT22;7517;48.400;11.770;2023-09-08T09:32:16;26.20;66.10
14850;DHT22;7517;48.400;11.770;2023-09-08T09:34:56;26.30;66.20
14850;DHT22;7517;48.400;11.770;2023-09-08T09:37:26;26.40;66.40
14850;DHT22;7517;48.400;11.770;2023-09-08T09:39:54;26.50;66.20
14850;DHT22;7517;48.400;11.770;2023-09-08T09:42:22;26.60;66.30
14850;DHT22;7517;48.400;11.770;2023-09-08T09:44:51;26.70;66.00
14850;DHT22;7517;48.400;11.770;2023-09-08T09:47:19;26.80;65.10
14850;DHT22;7517;48.400;11.770;2023-09-08T09:49:48;27.00;65.30
14850;DHT22;7517;48.400;11.770;2023-09-08T09:52:21;27.10;64.70
14850;DHT22;7517;48.400;11.770;2023-09-08T09:54:52;27.20;64.20
14850;DHT22;7517;48.400;11.770;2023-09-08T09:57:22;27.30;63.60
14850;DHT22;7517;48.400;11.770;2023-09-08T09:59:51;27.40;63.80
14850;DHT22;7517;48.400;11.770;2023-09-08T10:02:23;27.50;63.80
14850;DHT22;7517;48.400;11.770;2023-09-08T10:04:53;27.60;64.00
14850;DHT22;7517;48.400;11.770;2023-09-08T10:07:20;27.70;63.30
14850;DHT22;7517;48.400;11.770;2023-09-08T10:09:50;27.80;63.10
14850;DHT22;7517;48.400;11.770;2023-09-08T10:12:17;27.90;63.00
14850;DHT22;7517;48.400;11.770;2023-09-08T10:14:47;28.00;63.20
14850;DHT22;7517;48.400;11.770;2023-09-08T10:17:23;28.10;62.40
14850;DHT22;7517;48.400;11.770;2023-09-08T10:20:00;28.20;61.90
14850;DHT22;7517;48.400;11.770;2023-09-08T10:22:35;28.30;61.80
14850;DHT22;7517;48.400;11.770;2023-09-08T10:25:06;28.40;61.70
14850;DHT22;7517;48.400;11.770;2023-09-08T10:27:35;28.50;61.80
14850;DHT22;7517;48.400;11.770;2023-09-08T10:30:04;28.60;61.70
14850;DHT22;7517;48.400;11.770;2023-09-08T10:32:35;28.60;61.50
14850;DHT22;7517;48.400;11.770;2023-09-08T10:35:04;28.70;61.40
14850;DHT22;7517;48.400;11.770;2023-09-08T10:37:32;28.80;61.30
14850;DHT22;7517;48.400;11.770;2023-09-08T10:40:23;28.90;61.30
14850;DHT22;7517;48.400;11.770;2023-09-08T10:43:08;29.00;60.30
14850;DHT22;7517;48.400;11.770;2023-09-08T10:45:36;29.10;60.00
14850;DHT22;7517;48.400;11.770;2023-09-08T10:48:06;29.10;59.70
14850;DHT22;7517;48.400;11.770;2023-09-08T10:50:38;29.20;60.10
14850;DHT22;7517;48.400;11.770;2023-09-08T10:53:08;29.20;59.80
14850;DHT22;7517;48.400;11.770;2023-09-08T10:55:40;29.20;60.00
14850;DHT22;7517;48.400;11.770;2023-09-08T10:58:17;29.20;60.10
14850;DHT22;7517;48.400;11.770;2023-09-08T11:00:47;29.20;59.80
14850;DHT22;7517;48.400;11.770;2023-09-08T11:03:28;29.20;59.80
14850;DHT22;7517;48.400;11.770;2023-09-08T11:06:16;29.20;59.70
14850;DHT22;7517;48.400;11.770;2023-09-08T11:08:45;29.20;59.90
14850;DHT22;7517;48.400;11.770;2023-09-08T11:11:16;29.20;59.30
14850;DHT22;7517;48.400;11.770;2023-09-08T11:13:43;29.20;58.60
14850;DHT22;7517;48.400;11.770;2023-09-08T11:16:13;29.20;58.50
14850;DHT22;7517;48.400;11.770;2023-09-08T11:18:42;29.10;57.80
14850;DHT22;7517;48.400;11.770;2023-09-08T11:21:10;29.10;58.20
14850;DHT22;7517;48.400;11.770;2023-09-08T11:23:39;29.10;58.30
14850;DHT22;7517;48.400;11.770;2023-09-08T11:26:06;29.00;58.60
14850;DHT22;7517;48.400;11.770;2023-09-08T11:28:34;29.00;59.40
14850;DHT22;7517;48.400;11.770;2023-09-08T11:31:02;29.00;58.80
14850;DHT22;7517;48.400;11.770;2023-09-08T11:33:33;28.90;58.80
14850;DHT22;7517;48.400;11.770;2023-09-08T11:36:11;28.90;58.20
14850;DHT22;7517;48.400;11.770;2023-09-08T11:38:42;28.90;58.00
14850;DHT22;7517;48.400;11.770;2023-09-08T11:41:10;28.90;58.90
14850;DHT22;7517;48.400;11.770;2023-09-08T11:43:38;28.90;58.90
14850;DHT22;7517;48.400;11.770;2023-09-08T11:46:05;28.90;58.80
14850;DHT22;7517;48.400;11.770;2023-09-08T11:48:33;28.90;58.60
14850;DHT22;7517;48.400;11.770;2023-09-08T11:51:00;28.90;59.00
14850;DHT22;7517;48.400;11.770;2023-09-08T11:53:29;28.90;58.60
14850;DHT22;7517;48.400;11.770;2023-09-08T11:55:59;28.90;58.60
14850;DHT22;7517;48.400;11.770;2023-09-08T11:58:26;28.90;58.70
14850;DHT22;7517;48.400;11.770;2023-09-08T12:00:54;28.90;58.90
14850;DHT22;7517;48.400;11.770;2023-09-08T12:03:21;28.90;57.90
14850;DHT22;7517;48.400;11.770;2023-09-08T12:05:51;28.90;58.30
14850;DHT22;7517;48.400;11.770;2023-09-08T12:08:20;28.90;57.80
14850;DHT22;7517;48.400;11.770;2023-09-08T12:10:54;28.90;57.70
14850;DHT22;7517;48.400;11.770;2023-09-08T12:13:22;29.00;57.70
14850;DHT22;7517;48.400;11.770;2023-09-08T12:15:51;29.00;58.00
14850;DHT22;7517;48.400;11.770;2023-09-08T12:18:18;29.00;58.30
14850;DHT22;7517;48.400;11.770;2023-09-08T12:20:45;29.00;57.90
14850;DHT22;7517;48.400;11.770;2023-09-08T12:23:17;29.00;58.20
14850;DHT22;7517;48.400;11.770;2023-09-08T12:25:46;29.00;57.90
14850;DHT22;7517;48.400;11.770;2023-09-08T12:28:17;29.00;58.10
14850;DHT22;7517;48.400;11.770;2023-09-08T12:30:46;29.00;58.00
14850;DHT22;7517;48.400;11.770;2023-09-08T12:33:14;29.00;57.90
14850;DHT22;7517;48.400;11.770;2023-09-08T12:35:43;29.00;58.50
14850;DHT22;7517;48.400;11.770;2023-09-08T12:38:11;29.00;57.80
14850;DHT22;7517;48.400;11.770;2023-09-08T12:40:40;29.10;57.90
14850;DHT22;7517;48.400;11.770;2023-09-08T12:43:07;29.10;58.20
14850;DHT22;7517;48.400;11.770;2023-09-08T12:45:36;29.10;57.80
14850;DHT22;7517;48.400;11.770;2023-09-08T12:48:03;29.20;57.40
14850;DHT22;7517;48.400;11.770;2023-09-08T12:50:32;29.20;57.50
14850;DHT22;7517;48.400;11.770;2023-09-08T12:52:59;29.20;58.10
14850;DHT22;7517;48.400;11.770;2023-09-08T12:55:27;29.20;57.40
14850;DHT22;7517;48.400;11.770;2023-09-08T12:57:54;29.20;57.00
14850;DHT22;7517;48.400;11.770;2023-09-08T13:00:23;29.20;56.90
14850;DHT22;7517;48.400;11.770;2023-09-08T13:02:52;29.20;57.50
14850;DHT22;7517;48.400;11.770;2023-09-08T13:05:19;29.20;57.00
14850;DHT22;7517;48.400;11.770;2023-09-08T13:07:47;29.20;56.90
14850;DHT22;7517;48.400;11.770;2023-09-08T13:10:14;29.20;56.60
14850;DHT22;7517;48.400;11.770;2023-09-08T13:12:41;29.20;56.90
14850;DHT22;7517;48.400;11.770;2023-09-08T13:15:09;29.20;57.20
14850;DHT22;7517;48.400;11.770;2023-09-08T13:17:37;29.30;57.20
14850;DHT22;7517;48.400;11.770;2023-09-08T13:20:07;29.30;57.10
14850;DHT22;7517;48.400;11.770;2023-09-08T13:22:36;29.30;57.10
14850;DHT22;7517;48.400;11.770;2023-09-08T13:25:04;29.40;57.20
14850;DHT22;7517;48.400;11.770;2023-09-08T13:27:32;29.40;57.30
14850;DHT22;7517;48.400;11.770;2023-09-08T13:30:08;29.40;57.40
14850;DHT22;7517;48.400;11.770;2023-09-08T13:32:36;29.50;56.90
14850;DHT22;7517;48.400;11.770;2023-09-08T13:35:06;29.50;57.10
14850;DHT22;7517;48.400;11.770;2023-09-08T13:37:34;29.50;57.40
14850;DHT22;7517;48.400;11.770;2023-09-08T13:40:04;29.60;57.80
14850;DHT22;7517;48.400;11.770;2023-09-08T13:42:32;29.60;57.70
14850;DHT22;7517;48.400;11.770;2023-09-08T13:44:59;29.60;57.90
14850;DHT22;7517;48.400;11.770;2023-09-08T13:47:26;29.70;57.20
14850;DHT22;7517;48.400;11.770;2023-09-08T13:49:54;29.70;57.10
14850;DHT22;7517;48.400;11.770;2023-09-08T13:52:23;29.70;57.60
14850;DHT22;7517;48.400;11.770;2023-09-08T13:54:50;29.70;57.50
14850;DHT22;7517;48.400;11.770;2023-09-08T13:57:18;29.70;57.70
14850;DHT22;7517;48.400;11.770;2023-09-08T13:59:48;29.70;57.90
14850;DHT22;7517;48.400;11.770;2023-09-08T14:02:15;29.70;57.80
14850;DHT22;7517;48.400;11.770;2023-09-08T14:04:42;29.80;57.80
14850;DHT22;7517;48.400;11.770;2023-09-08T14:07:10;29.80;57.80
14850;DHT22;7517;48.400;11.770;2023-09-08T14:09:38;29.80;58.00
14850;DHT22;7517;48.400;11.770;2023-09-08T14:12:06;29.80;57.70
14850;DHT22;7517;48.400;11.770;2023-09-08T14:14:34;29.80;58.10
14850;DHT22;7517;48.400;11.770;2023-09-08T14:17:01;29.80;58.10
14850;DHT22;7517;48.400;11.770;2023-09-08T14:19:28;29.80;57.50
14850;DHT22;7517;48.400;11.770;2023-09-08T14:21:55;29.80;57.70
14850;DHT22;7517;48.400;11.770;2023-09-08T14:24:23;29.80;57.80
14850;DHT22;7517;48.400;11.770;2023-09-08T14:26:52;29.80;57.90
14850;DHT22;7517;48.400;11.770;2023-09-08T14:29:21;29.80;57.90
14850;DHT22;7517;48.400;11.770;2023-09-08T14:31:49;29.90;58.00
14850;DHT22;7517;48.400;11.770;2023-09-08T14:34:16;29.90;58.00
14850;DHT22;7517;48.400;11.770;2023-09-08T14:36:44;29.90;58.10
14850;DHT22;7517;48.400;11.770;2023-09-08T14:39:13;29.90;57.70
14850;DHT22;7517;48.400;11.770;2023-09-08T14:41:42;29.90;57.80
14850;DHT22;7517;48.400;11.770;2023-09-08T14:44:10;29.90;57.80
14850;DHT22;7517;48.400;11.770;2023-09-08T14:46:37;29.90;58.00
14850;DHT22;7517;48.400;11.770;2023-09-08T14:49:05;29.90;57.90
14850;DHT22;7517;48.400;11.770;2023-09-08T14:51:32;29.90;58.00
14850;DHT22;7517;48.400;11.770;2023-09-08T14:53:59;29.90;58.00
14850;DHT22;7517;48.400;11.770;2023-09-08T14:56:26;29.90;57.90
14850;DHT22;7517;48.400;11.770;2023-09-08T14:58:55;29.90;58.00
14850;DHT22;7517;48.400;11.770;2023-09-08T15:01:24;30.00;58.10
14850;DHT22;7517;48.400;11.770;2023-09-08T15:03:52;30.00;58.50
14850;DHT22;7517;48.400;11.770;2023-09-08T15:06:20;30.00;58.20
14850;DHT22;7517;48.400;11.770;2023-09-08T15:08:47;30.00;58.20
14850;DHT22;7517;48.400;11.770;2023-09-08T15:11:15;30.00;58.00
14850;DHT22;7517;48.400;11.770;2023-09-08T15:13:42;29.90;58.10
14850;DHT22;7517;48.400;11.770;2023-09-08T15:16:10;29.90;58.10
14850;DHT22;7517;48.400;11.770;2023-09-08T15:18:39;29.90;58.20
14850;DHT22;7517;48.400;11.770;2023-09-08T15:21:06;29.90;57.90
14850;DHT22;7517;48.400;11.770;2023-09-08T15:23:34;29.90;58.30
14850;DHT22;7517;48.400;11.770;2023-09-08T15:26:02;29.90;58.20
14850;DHT22;7517;48.400;11.770;2023-09-08T15:28:30;29.90;58.30
14850;DHT22;7517;48.400;11.770;2023-09-08T15:30:57;29.90;58.40
14850;DHT22;7517;48.400;11.770;2023-09-08T15:33:25;29.90;58.40
14850;DHT22;7517;48.400;11.770;2023-09-08T15:35:54;29.80;58.20
14850;DHT22;7517;48.400;11.770;2023-09-08T15:38:21;29.80;57.90